Texas Logo

Cypress, TX Single Family Real Estate Listings

1672 Total Real Estate Listings * Click on table heading to sort
Date Posted Property Type Style Address Price Living Area Lot Size Price/Sq Ft.
2018-05-20 Single Family Ranch 11935 Deep Woods Drive Cypress, TX 77429 $275,000 1,905 sq. ft. 65,340 sq. ft. $144
2018-05-19 Single Family Ranch 14207 Cheval Drive Cypress, TX 77429 $167,900 1,660 sq. ft. 6,534 sq. ft. $101
2018-05-19 Single Family Traditional 14819 Cypresswood Springs Lane Cypress, TX 77429 $269,900 2,624 sq. ft. 8,276 sq. ft. $103
2018-05-19 Single Family Traditional 7202 Teal Wind Drive Cypress, TX 77433 $179,900 2,040 sq. ft. 4,792 sq. ft. $88
2018-05-19 Single Family Traditional 7347 River Pines Drive Cypress, TX 77433 $129,900 1,385 sq. ft. 4,356 sq. ft. $94
2018-05-19 Single Family Traditional 7918 Raven Creek Lane Cypress, TX 77433 $225,000 3,209 sq. ft. 5,663 sq. ft. $70
2018-05-19 Single Family Traditional 19714 Tacoma Bluff Drive Cypress, TX 77433 $240,000 1,849 sq. ft. 6,534 sq. ft. $130
2018-05-19 Single Family Traditional 17102 Upton Hill Drive Cypress, TX 77433 $454,000 3,638 sq. ft. 13,504 sq. ft. $125
2018-05-19 Single Family Traditional 16110 Indian Cypress Drive Cypress, TX 77429 $183,900 1,951 sq. ft. 6,970 sq. ft. $94
2018-05-19 Single Family Traditional 15507 Stallion Point Circle Cypress, TX 77429 $425,000 4,203 sq. ft. 10,454 sq. ft. $101
2018-05-19 Single Family Traditional 16311 Cypress Point Drive Cypress, TX 77429 $150,000 1,905 sq. ft. 6,534 sq. ft. $79
2018-05-19 Single Family Traditional 20743 Stewart Crest Lane Cypress, TX 77433 $270,000 2,864 sq. ft. 10,454 sq. ft. $94
2018-05-18 Single Family Contemporary/Modern 14335 Arlington Place Cypress, TX 77429 $350,000 3,323 sq. ft. 10,454 sq. ft. $105
2018-05-18 Single Family Traditional 21615 Harbor Water Drive Cypress, TX 77433 $700,000 4,801 sq. ft. 23,522 sq. ft. $146
2018-05-18 Single Family Traditional 18110 First Bend Drive Cypress, TX 77433 $479,400 4,203 sq. ft. 9,148 sq. ft. $114
2018-05-18 Single Family Ranch 15111 Hillside Park Way Cypress, TX 77433 $190,000 1,746 sq. ft. 6,534 sq. ft. $109
2018-05-18 Single Family Traditional 19511 Jackson Brook Way Cypress, TX 77429 $217,000 2,630 sq. ft. 4,792 sq. ft. $83
2018-05-18 Single Family Traditional 18110 Blues Point Drive Cypress, TX 77429 $299,000 2,250 sq. ft. 6,970 sq. ft. $133
2018-05-18 Single Family Traditional 15018 Telge Lake Trail Cypress, TX 77429 $275,000 3,203 sq. ft. 6,534 sq. ft. $86
2018-05-18 Single Family Traditional 15706 Whisper Woods Drive Cypress, TX 77429 $240,000 2,473 sq. ft. 5,663 sq. ft. $97
2018-05-18 Single Family Contemporary/Modern 19118 Egret Glen Court Cypress, TX 77429 $379,990 3,866 sq. ft. 8,276 sq. ft. $98
2018-05-18 Single Family Traditional 21506 Fairhaven Creek Drive Cypress, TX 77433 $595,000 4,468 sq. ft. 21,780 sq. ft. $133
2018-05-18 Single Family Mediterranean; Traditional 13507 Kluge Corner Lane Cypress, TX 77429 $729,000 5,164 sq. ft. 22,216 sq. ft. $141
2018-05-18 Single Family Contemporary/Modern 20318 Monica Joyce Lane Cypress, TX 77433 $449,818 3,513 sq. ft. 8,712 sq. ft. $128
2018-05-18 Single Family Traditional 18415 Morgans Bend Drive Cypress, TX 77433 $419,900 3,543 sq. ft. 7,841 sq. ft. $119
2018-05-18 Single Family Traditional 21011 Chir Pine Circle Cypress, TX 77433 $249,706 2,056 sq. ft. $121
2018-05-18 Single Family Traditional 8234 Aleppo Pine Lane Cypress, TX 77433 $240,619 1,512 sq. ft. $159
2018-05-18 Single Family Traditional 20603 Tulip Blossom Court Cypress, TX 77433 $239,900 2,298 sq. ft. 5,227 sq. ft. $104
2018-05-18 Single Family Traditional 14906 Autumnvale Lane Cypress, TX 77429 $300,000 2,885 sq. ft. 7,841 sq. ft. $104
2018-05-18 Single Family Contemporary/Modern 9623 Towne Lake Pkwy Cypress, TX 77433 $476,350 2,293 sq. ft. 2,614 sq. ft. $208
2018-05-18 Single Family Traditional 8907 English Manor Drive Cypress, TX 77433 $228,000 1,788 sq. ft. $128
2018-05-18 Single Family Traditional 17906 Spoke Hollow Court Cypress, TX 77433 $695,000 3,719 sq. ft. 6,534 sq. ft. $187
2018-05-18 Single Family Mediterranean 13603 Leon Springs Lane Cypress, TX 77429 $760,000 5,467 sq. ft. 21,780 sq. ft. $139
2018-05-18 Single Family Traditional 20015 Caraway Ridge Drive Cypress, TX 77433 $184,000 1,594 sq. ft. 6,534 sq. ft. $115
2018-05-18 Single Family Traditional 19523 Cypriate Trail Cypress, TX 77429 $248,500 3,040 sq. ft. 6,098 sq. ft. $82
2018-05-18 Single Family Mediterranean 16918 Thomas Ridge Lane Cypress, TX 77433 $715,000 3,766 sq. ft. 11,761 sq. ft. $190
2018-05-17 Single Family Traditional 17822 Harbour Bridge Point Drive Cypress, TX 77429 $502,530 4,786 sq. ft. 7,405 sq. ft. $105
2018-05-17 Single Family Traditional 7814 Blue Wahoo Lane Cypress, TX 77433 $185,000 2,102 sq. ft. 4,792 sq. ft. $88
2018-05-17 Single Family Contemporary/Modern 16019 Peach Bluff Lane Cypress, TX 77429 $210,000 2,184 sq. ft. 6,534 sq. ft. $96
2018-05-17 Single Family Traditional 20423 Stone Falls Court Cypress, TX 77433 $214,500 1,950 sq. ft. 9,583 sq. ft. $110
2018-05-17 Single Family Traditional 18018 Willow Cliff Lane Cypress, TX 77433 $215,000 2,104 sq. ft. 6,970 sq. ft. $102
2018-05-17 Single Family Traditional 12722 Devotion Lane Cypress, TX 77429 $400,970 3,202 sq. ft. $125
2018-05-17 Single Family Traditional 15803 Stiller Park Drive Cypress, TX 77429 $225,000 1,659 sq. ft. 6,098 sq. ft. $136
2018-05-17 Single Family Traditional 27327 Saxon Meadow Lane Cypress, TX 77433 $434,900 3,533 sq. ft. 16,553 sq. ft. $123
2018-05-17 Single Family Traditional 14514 Claycroft Court Cypress, TX 77429 $280,000 2,738 sq. ft. 6,970 sq. ft. $102
2018-05-17 Single Family Traditional 8014 Archcrest Court Cypress, TX 77433 $185,000 3,204 sq. ft. 14,375 sq. ft. $58
2018-05-17 Single Family Traditional 21018 Green Jewel Drive Cypress, TX 77433 $435,000 3,900 sq. ft. 9,148 sq. ft. $112
2018-05-17 Single Family Contemporary/Modern 9627 Towne Lake Pkwy Cypress, TX 77433 $425,250 2,293 sq. ft. 2,178 sq. ft. $185
2018-05-17 Single Family Traditional 19742 Tacoma Bluff Drive Cypress, TX 77433 $250,000 2,489 sq. ft. 6,534 sq. ft. $100
2018-05-17 Single Family Traditional 18919 Hilltop Valley Drive Cypress, TX 77429 $434,375 3,468 sq. ft. $125
2018-05-17 Single Family Traditional 13206 Chriswood Drive Cypress, TX 77429 $255,000 2,556 sq. ft. 19,166 sq. ft. $100
2018-05-17 Single Family Traditional 19306 Sagebrush Valley Lane Cypress, TX 77433 $158,900 1,571 sq. ft. 5,227 sq. ft. $101
2018-05-17 Single Family Traditional 15511 Guadalupe Springs Lane Cypress, TX 77429 $615,000 4,668 sq. ft. 11,761 sq. ft. $132
2018-05-17 Single Family Georgian 18206 Lake Eagle Dr Cypress, TX 77433 $385,000 2,727 sq. ft. 3,485 sq. ft. $141
2018-05-17 Single Family Other Style 18518 Vickers Road Cypress, TX 77433 $250,000 600 sq. ft. 87,120 sq. ft. $417
2018-05-17 Single Family Traditional 12923 Yorkmont Drive Cypress, TX 77429 $243,500 2,270 sq. ft. 6,098 sq. ft. $107
2018-05-17 Single Family Traditional 19023 Fire Tower Hill Place Cypress, TX 77433 $412,365 3,308 sq. ft. 7,841 sq. ft. $125
2018-05-17 Single Family Ranch; Traditional 14739 Mills Park Lane Cypress, TX 77429 $225,000 2,151 sq. ft. 7,405 sq. ft. $105
2018-05-17 Single Family Traditional 9118 Pine Place Court Cypress, TX 77433 $389,000 2,941 sq. ft. 7,405 sq. ft. $132
2018-05-17 Single Family Traditional 15702 Dunbar Ridge Drive Cypress, TX 77429 $449,079 3,595 sq. ft. $125
2018-05-17 Single Family Traditional 14302 Arlington Place Cypress, TX 77429 $357,000 4,262 sq. ft. 10,454 sq. ft. $84
2018-05-17 Single Family Traditional 19802 Crested Peak Lane Cypress, TX 77433 $315,000 2,788 sq. ft. 9,583 sq. ft. $113
2018-05-17 Single Family Traditional 18906 Juniper Bend Court Cypress, TX 77429 $255,000 2,748 sq. ft. 7,841 sq. ft. $93
2018-05-17 Single Family Traditional 12010 Auckland Point Cypress, TX 77429 $308,789 2,474 sq. ft. 8,276 sq. ft. $125
2018-05-17 Single Family Traditional 13218 April Mist Court Cypress, TX 77429 $375,000 3,664 sq. ft. 9,148 sq. ft. $102
2018-05-17 Single Family Contemporary/Modern 14831 Cross Stone Court Cypress, TX 77429 $239,999 3,011 sq. ft. 6,098 sq. ft. $80
2018-05-17 Single Family Traditional 17919 Spoke Hollow Court Cypress, TX 77433 $649,000 3,750 sq. ft. 5,663 sq. ft. $173
2018-05-17 Single Family Traditional 18102 Mallard Estates Court Cypress, TX 77429 $367,500 3,736 sq. ft. 12,197 sq. ft. $98
2018-05-17 Single Family Traditional 20320 Willow Trace Dr Cypress, TX 77433 $210,000 1,916 sq. ft. 6,970 sq. ft. $110
2018-05-17 Single Family Colonial 16830 Promenade Park Cypress, TX 77429 $223,998 2,189 sq. ft. 7,405 sq. ft. $102
2018-05-16 Single Family Traditional 13415 Bend Landing Cypress, TX 77429 $695,000 6,203 sq. ft. 9,583 sq. ft. $112
2018-05-16 Single Family Traditional 10810 Gates Randal Court Cypress, TX 77433 $275,000 2,049 sq. ft. 9,583 sq. ft. $134
2018-05-16 Single Family Ranch; Traditional 18122 Courtly Estates Lane Cypress, TX 77429 $305,000 2,838 sq. ft. 8,712 sq. ft. $107
2018-05-16 Single Family Traditional 12959 Lemur Lane Cypress, TX 77429 $218,000 2,229 sq. ft. 8,276 sq. ft. $98
2018-05-16 Single Family Traditional 16707 Azure Mist Court Cypress, TX 77433 $469,000 4,109 sq. ft. 10,454 sq. ft. $114
2018-05-16 Single Family Traditional 18706 Thomas Survey Drive Cypress, TX 77433 $435,000 4,352 sq. ft. 10,454 sq. ft. $100
2018-05-16 Single Family Traditional 8507 Clarkman Ridge Lane Cypress, TX 77433 $311,000 3,272 sq. ft. 6,970 sq. ft. $95
2018-05-16 Single Family Traditional 16103 Lower Pecos Drive Cypress, TX 77433 $294,765 2,397 sq. ft. 8,276 sq. ft. $123
2018-05-16 Single Family Traditional 8514 Windy Path Lane Cypress, TX 77433 $245,000 2,636 sq. ft. 6,098 sq. ft. $93
2018-05-16 Single Family Traditional 19907 Sagebrush Hollow Drive Cypress, TX 77433 $289,995 2,935 sq. ft. 0 sq. ft. $99
2018-05-16 Single Family Traditional 13010 Peach Meadow Drive Cypress, TX 77429 $289,900 2,490 sq. ft. 7,405 sq. ft. $116
2018-05-16 Single Family Traditional 26503 Opal Hollow Lane Cypress, TX 77433 $509,900 4,629 sq. ft. 15,682 sq. ft. $110
2018-05-16 Single Family Traditional 7203 Cypress Pin Oak Drive Cypress, TX 77433 $245,950 2,367 sq. ft. $104
2018-05-16 Single Family Traditional 7303 Cypress Pin Oak Drive Cypress, TX 77433 $249,950 2,412 sq. ft. $104
2018-05-16 Single Family Traditional 13815 Winding Springs Drive Cypress, TX 77429 $699,900 5,011 sq. ft. 14,810 sq. ft. $140
2018-05-16 Single Family Traditional 18111 Tawnas Way Lane Cypress, TX 77429 $209,900 2,560 sq. ft. 5,663 sq. ft. $82
2018-05-16 Single Family Traditional 16206 Cleburne State Park Drive Cypress, TX 77433 $376,990 3,130 sq. ft. $120
2018-05-16 Single Family Traditional 17907 Tall Chestnut Street Cypress, TX 77429 $306,900 2,493 sq. ft. 6,098 sq. ft. $123
2018-05-16 Single Family Traditional 13423 Sterling Park Lane Cypress, TX 77429 $285,000 2,754 sq. ft. 6,970 sq. ft. $103
2018-05-16 Single Family Traditional 15315 Wisteria Springs Drive Cypress, TX 77433 $291,000 2,794 sq. ft. 10,890 sq. ft. $104
2018-05-16 Single Family Traditional 18314 Elizabeth Shore Loop Cypress, TX 77433 $255,000 2,273 sq. ft. 6,098 sq. ft. $112
2018-05-16 Single Family Traditional 12317 Ravens Chase Lane Cypress, TX 77429 $224,999 2,448 sq. ft. 13,939 sq. ft. $92
2018-05-16 Single Family Traditional 15219 Maple Meadows Drive Cypress, TX 77433 $199,900 1,732 sq. ft. 6,970 sq. ft. $115
2018-05-16 Single Family Contemporary/Modern 14823 Cypresswood Springs Lane Cypress, TX 77429 $277,000 2,043 sq. ft. 7,841 sq. ft. $136
2018-05-15 Single Family Traditional 11010 Woodwind Shadows Drive Cypress, TX 77433 $270,000 3,096 sq. ft. 8,712 sq. ft. $87
2018-05-15 Single Family Traditional 15018 Mulberry Field Circle Cypress, TX 77433 $292,900 3,102 sq. ft. 6,534 sq. ft. $94
2018-05-15 Single Family Traditional 20203 Monica Joyce Lane Cypress, TX 77433 $450,000 3,806 sq. ft. 10,019 sq. ft. $118
2018-05-15 Single Family Traditional 10127 Blanchard Park Lane Cypress, TX 77433 $350,000 2,970 sq. ft. 7,841 sq. ft. $118
2018-05-15 Single Family Traditional 13611 Trailmeadow Court Cypress, TX 77429 $249,500 2,366 sq. ft. 6,534 sq. ft. $105
2018-05-15 Single Family Traditional 18127 Tall Chestnut Street Cypress, TX 77429 $297,000 2,415 sq. ft. 8,276 sq. ft. $123
2018-05-15 Single Family Traditional 18418 Paloma Drive Cypress, TX 77433 $1,200,000 6,038 sq. ft. 103,237 sq. ft. $199
2018-05-15 Single Family Traditional 15146 Woodford Hollow Lane Cypress, TX 77429 $237,500 2,310 sq. ft. 8,276 sq. ft. $103
2018-05-15 Single Family Traditional 20526 Blue Hyacinth Drive Cypress, TX 77433 $239,500 1,960 sq. ft. 6,098 sq. ft. $122
2018-05-15 Single Family Traditional 16703 Saddle Ridge Pass Cypress, TX 77433 $1,329,000 5,594 sq. ft. 130,680 sq. ft. $238
2018-05-15 Single Family Traditional 7607 Drifting Willow Court Cypress, TX 77433 $179,500 2,081 sq. ft. 5,227 sq. ft. $86
2018-05-15 Single Family Traditional 20247 Aspenwilde Cypress, TX 77433 $353,897 3,027 sq. ft. 7,841 sq. ft. $117
2018-05-15 Single Family Traditional 14922 Spring Walk Lane Cypress, TX 77429 $220,000 2,472 sq. ft. 7,405 sq. ft. $89
2018-05-15 Single Family Traditional 9114 Brownwood Bend Court Cypress, TX 77433 $569,000 4,233 sq. ft. 13,504 sq. ft. $134
2018-05-15 Single Family Traditional 13503 Oak Hollow Drive Cypress, TX 77429 $195,900 2,202 sq. ft. 34,848 sq. ft. $89
2018-05-15 Single Family Contemporary/Modern; Traditional 18619 Tara Ashley Street Cypress, TX 77433 $325,000 3,396 sq. ft. 9,583 sq. ft. $96
2018-05-15 Single Family Contemporary/Modern 15510 Kellan Court Cypress, TX 77429 $398,500 4,082 sq. ft. 10,454 sq. ft. $98
2018-05-15 Single Family Traditional 18619 Colony Shore Drive Cypress, TX 77433 $485,000 4,277 sq. ft. 10,890 sq. ft. $113
2018-05-15 Single Family Contemporary/Modern 11410 Columbia Pines Lane Cypress, TX 77433 $262,500 2,181 sq. ft. 7,405 sq. ft. $120
2018-05-15 Single Family Traditional 13103 Parc Cove Court Cypress, TX 77429 $488,900 3,842 sq. ft. 14,375 sq. ft. $127
2018-05-15 Single Family Traditional 14623 Honeycomb Lane Cypress, TX 77429 $234,000 2,120 sq. ft. 9,148 sq. ft. $110
2018-05-15 Single Family Traditional 18107 Obelisk Bay Drive Cypress, TX 77429 $472,500 4,263 sq. ft. 8,276 sq. ft. $111
2018-05-14 Single Family Traditional 15518 Stable Park Drive Cypress, TX 77429 $375,000 3,121 sq. ft. 11,326 sq. ft. $120
2018-05-14 Single Family Traditional 7527 Pheasant Grove Drive Cypress, TX 77433 $184,900 1,737 sq. ft. 5,663 sq. ft. $106
2018-05-14 Single Family Traditional 19527 Mills Glen Drive Cypress, TX 77433 $330,000 3,058 sq. ft. 6,534 sq. ft. $108
2018-05-14 Single Family Traditional 16415 Prairie Haven Court Cypress, TX 77429 $255,000 3,420 sq. ft. 10,890 sq. ft. $75
2018-05-14 Single Family Contemporary/Modern 7734 Sapulpa Lane Cypress, TX 77433 $269,000 3,783 sq. ft. 8,276 sq. ft. $71
2018-05-14 Single Family Traditional 21019 Aqua Bay Court Cypress, TX 77433 $565,000 4,595 sq. ft. 14,375 sq. ft. $123
2018-05-14 Single Family Contemporary/Modern 13619 Northpointe Ridge Lane Cypress, TX 77429 $240,000 2,324 sq. ft. 6,534 sq. ft. $103
2018-05-14 Single Family Traditional 19906 Caitlyn Blossom Lane Cypress, TX 77433 $280,000 3,000 sq. ft. 6,098 sq. ft. $93
2018-05-14 Single Family Traditional 15310 Court Amber Trail Cypress, TX 77433 $270,000 2,462 sq. ft. 6,534 sq. ft. $110
2018-05-14 Single Family Ranch 12735 Retreat Trail Cypress, TX 77429 $240,000 2,666 sq. ft. 9,583 sq. ft. $90
2018-05-14 Single Family Traditional 11910 Meadowview Drive Cypress, TX 77429 $209,900 2,110 sq. ft. 9,583 sq. ft. $99
2018-05-14 Single Family Traditional 14830 Grand Corral Lane Cypress, TX 77429 $234,900 2,280 sq. ft. 9,583 sq. ft. $103
2018-05-14 Single Family Traditional 16606 Hamilton Park Drive Cypress, TX 77429 $799,000 4,200 sq. ft. 26,572 sq. ft. $190
2018-05-14 Single Family Traditional 10802 Dawn River Court Cypress, TX 77433 $450,819 3,252 sq. ft. $139
2018-05-14 Single Family Traditional 15414 Vista Canyon Court Cypress, TX 77433 $342,706 2,392 sq. ft. 9,148 sq. ft. $143
2018-05-14 Single Family Traditional 20126 Wedgewood Grove Cypress, TX 77433 $364,352 2,717 sq. ft. $134
2018-05-14 Single Family Traditional 11918 Cottonwood Lane Cypress, TX 77429 $195,000 2,074 sq. ft. 9,148 sq. ft. $94
2018-05-14 Single Family Traditional 15807 Stable Creek Circle Cypress, TX 77429 $425,000 3,535 sq. ft. 20,909 sq. ft. $120
2018-05-14 Single Family Ranch 14706 Salamanca Court Cypress, TX 77429 $194,500 1,646 sq. ft. 9,583 sq. ft. $118
2018-05-14 Single Family Ranch; Traditional 13019 Vernon Road Cypress, TX 77429 $172,000 1,593 sq. ft. 19,166 sq. ft. $108
2018-05-14 Single Family Traditional 19122 Cove Manor Drive Cypress, TX 77433 $670,000 4,583 sq. ft. 14,810 sq. ft. $146
2018-05-14 Single Family Traditional 13126 Lemur Lane Cypress, TX 77429 $260,000 2,574 sq. ft. 8,712 sq. ft. $101
2018-05-13 Single Family Traditional 18206 Auburn Woods Drive Cypress, TX 77429 $194,900 2,429 sq. ft. 13,068 sq. ft. $80
2018-05-13 Single Family Traditional 26403 Opal Hollow Lane Cypress, TX 77433 $459,900 4,416 sq. ft. 14,810 sq. ft. $104
2018-05-13 Single Family Traditional 15206 Sienna Glen Court Cypress, TX 77429 $269,900 3,898 sq. ft. 9,148 sq. ft. $69
2018-05-13 Single Family Traditional 18310 Maple Mill Drive Cypress, TX 77429 $205,000 1,930 sq. ft. 6,098 sq. ft. $106
2018-05-13 Single Family Traditional 18626 Gail Shore Drive Cypress, TX 77433 $403,400 4,358 sq. ft. 7,405 sq. ft. $93
2018-05-12 Single Family Traditional 10035 Gage Daniel Lane Cypress, TX 77433 $389,900 3,656 sq. ft. 7,841 sq. ft. $107
2018-05-12 Single Family Traditional 18626 Cypress Lake Village Drive Cypress, TX 77429 $260,000 3,102 sq. ft. 6,098 sq. ft. $84
2018-05-12 Single Family Traditional 15107 Magnoliabough Place Cypress, TX 77429 $315,000 3,767 sq. ft. 6,098 sq. ft. $84
2018-05-12 Single Family Traditional 8310 Sedona Run Drive Cypress, TX 77433 $299,900 3,219 sq. ft. 11,326 sq. ft. $93
2018-05-12 Single Family Mediterranean; Traditional 18202 Alora Springs Cypress, TX 77433 $285,400 2,315 sq. ft. $123
2018-05-12 Single Family Traditional 19307 Rock Pigeon Cypress, TX 77433 $317,990 2,361 sq. ft. $135
2018-05-12 Single Family Contemporary/Modern 17518 Treecreeper Lane Cypress, TX 77433 $279,900 2,080 sq. ft. $135
2018-05-12 Single Family Traditional 18402 Hughlett Drive Cypress, TX 77433 $459,000 3,376 sq. ft. 10,019 sq. ft. $136
2018-05-12 Single Family Traditional 18402 Cypress Lake Village Drive Cypress, TX 77429 $215,000 2,208 sq. ft. 6,098 sq. ft. $97
2018-05-12 Single Family Traditional 15511 Rambling River Way Cypress, TX 77433 $358,000 3,296 sq. ft. 13,504 sq. ft. $109
2018-05-12 Single Family Mediterranean 18511 Cypress Church Road Cypress, TX 77433 $1,500,000 5,767 sq. ft. 163,350 sq. ft. $260
2018-05-12 Single Family Traditional 18019 Shallow Leaf Lane Cypress, TX 77433 $199,900 2,506 sq. ft. 4,356 sq. ft. $80
2018-05-12 Single Family Traditional 20210 Mariposa Blue Lane Cypress, TX 77433 $549,000 5,162 sq. ft. 12,632 sq. ft. $106
2018-05-11 Single Family Traditional 12626 Rifleman Trail Cypress, TX 77429 $245,000 2,524 sq. ft. 10,019 sq. ft. $97
2018-05-11 Single Family Contemporary/Modern 15615 Bending Birch Drive Cypress, TX 77433 $217,500 1,710 sq. ft. 6,534 sq. ft. $127
2018-05-11 Single Family Traditional 15506 Stable Oak Drive Cypress, TX 77429 $339,900 3,137 sq. ft. 10,454 sq. ft. $108
2018-05-11 Single Family Traditional 18539 Bridoon Drive Cypress, TX 77433 $135,000 1,551 sq. ft. 6,534 sq. ft. $87
2018-05-11 Single Family Ranch; Traditional 13914 San Saba Canyon Lane Cypress, TX 77429 $425,000 2,672 sq. ft. 8,276 sq. ft. $159
2018-05-11 Single Family Traditional 17930 Pecan Bayou Lane Cypress, TX 77433 $450,000 3,533 sq. ft. 6,098 sq. ft. $127
2018-05-11 Single Family Traditional 15530 Ponderosa Bend Lane Cypress, TX 77429 $338,967 2,302 sq. ft. $147
2018-05-11 Single Family Traditional 19705 Rustic Lake Lane Cypress, TX 77433 $230,000 3,372 sq. ft. 6,098 sq. ft. $68
2018-05-11 Single Family Contemporary/Modern 8106 Yarrow Drive Cypress, TX 77433 $328,000 3,493 sq. ft. 8,276 sq. ft. $94
2018-05-11 Single Family Mediterranean 19202 W Austin Bayou Cypress, TX 77433 $899,900 5,113 sq. ft. 15,682 sq. ft. $176
2018-05-11 Single Family Traditional 14522 Sandalin Drive Cypress, TX 77429 $250,000 2,376 sq. ft. 6,970 sq. ft. $105
2018-05-11 Single Family Traditional 18806 Blanco Bend Drive Cypress, TX 77433 $459,000 4,341 sq. ft. 7,841 sq. ft. $106
2018-05-11 Single Family Traditional 19911 Appleton Hills Trail Cypress, TX 77433 $328,900 2,251 sq. ft. 6,970 sq. ft. $146
2018-05-11 Single Family Traditional 14726 Apricot Blush Court Cypress, TX 77433 $314,900 2,958 sq. ft. 7,841 sq. ft. $106
2018-05-11 Single Family Traditional 16643 Roseglade Drive Cypress, TX 77429 $225,700 2,257 sq. ft. 6,098 sq. ft. $100
2018-05-11 Single Family Traditional 9407 Peralta Creek Ct Cypress, TX 77433 $299,990 2,206 sq. ft. 6,534 sq. ft. $136
2018-05-11 Single Family Traditional 16918 Jelly Park Stone Drive Cypress, TX 77429 $235,000 2,546 sq. ft. 5,663 sq. ft. $92
2018-05-11 Single Family Traditional 20527 Kohle Springs Ln Cypress, TX 77433 $329,990 2,833 sq. ft. 6,970 sq. ft. $116
2018-05-11 Single Family Traditional 14215 Prospect Point Drive Cypress, TX 77429 $325,000 2,954 sq. ft. 7,841 sq. ft. $110
2018-05-11 Single Family Traditional 10926 Walts Run Lane Cypress, TX 77433 $354,900 2,728 sq. ft. 6,534 sq. ft. $130
2018-05-11 Single Family Ranch 12 Live Oak Trail Cypress, TX 77429 $375,000 2,569 sq. ft. 46,174 sq. ft. $146
2018-05-11 Single Family Traditional 16802 Green Star Lane Cypress, TX 77429 $234,500 2,540 sq. ft. 7,405 sq. ft. $92
2018-05-11 Single Family Mediterranean 18902 Colonial Hill Dr Cypress, TX 77433 $538,398 4,057 sq. ft. 13,939 sq. ft. $133
2018-05-11 Single Family Mediterranean 16906 Avion Village Dr Cypress, TX 77433 $554,608 4,010 sq. ft. 9,148 sq. ft. $138
2018-05-11 Single Family Traditional 12938 Birch Glen Drive Cypress, TX 77429 $344,900 3,671 sq. ft. 8,712 sq. ft. $94
2018-05-11 Single Family Traditional 13507 Layton Castle Lane Cypress, TX 77429 $389,000 3,655 sq. ft. 9,148 sq. ft. $106
2018-05-10 Single Family Traditional 13603 Grey Hollow Lane Cypress, TX 77429 $315,000 2,947 sq. ft. 11,326 sq. ft. $107
2018-05-10 Single Family Traditional 12314 Meadow Blossom Lane Cypress, TX 77433 $270,000 2,252 sq. ft. 6,970 sq. ft. $120
2018-05-10 Single Family Traditional 15707 Stable Creek Circle Cypress, TX 77429 $365,000 3,046 sq. ft. 23,087 sq. ft. $120
2018-05-10 Single Family Contemporary/Modern 19031 Highlands Bayou Drive Cypress, TX 77433 $309,000 2,098 sq. ft. 9,583 sq. ft. $147
2018-05-10 Single Family Traditional 14614 Mills Park Lane Cypress, TX 77429 $205,000 1,743 sq. ft. 5,663 sq. ft. $118
2018-05-10 Single Family Traditional 10907 Sunnydale Ridge Lane Cypress, TX 77433 $481,854 3,536 sq. ft. $136
2018-05-10 Single Family Traditional 10939 Sunnydale Ridge Lane Cypress, TX 77433 $492,844 3,791 sq. ft. $130
2018-05-10 Single Family Traditional 15315 Thompson Ridge Drive Cypress, TX 77429 $595,000 4,297 sq. ft. 15,246 sq. ft. $138
2018-05-10 Single Family Traditional 10722 Dawn River Court Cypress, TX 77433 $466,172 3,410 sq. ft. $137
2018-05-10 Single Family Traditional 13206 Finch Brook Drive Cypress, TX 77429 $299,000 3,010 sq. ft. 10,019 sq. ft. $99
2018-05-10 Single Family Traditional 19014 Kimber Creek Lane Cypress, TX 77429 $629,000 4,425 sq. ft. $142
2018-05-10 Single Family Traditional 14827 Lime Blossom Court Cypress, TX 77433 $265,000 2,829 sq. ft. 6,534 sq. ft. $94
2018-05-10 Single Family Traditional 12535 Lusterleaf Drive Cypress, TX 77429 $186,900 1,799 sq. ft. 10,019 sq. ft. $104
2018-05-10 Single Family Traditional 18211 Cypress Stone Lane Cypress, TX 77429 $205,000 1,981 sq. ft. 13,068 sq. ft. $103
2018-05-10 Single Family Traditional 7511 Livery Lane Cypress, TX 77433 $138,000 1,198 sq. ft. 6,970 sq. ft. $115
2018-05-10 Single Family Traditional 15326 Stable Run Drive Cypress, TX 77429 $449,900 4,312 sq. ft. 15,246 sq. ft. $104
2018-05-10 Single Family Traditional 12615 Cloverwood Drive Cypress, TX 77429 $275,000 2,757 sq. ft. 10,019 sq. ft. $100
2018-05-10 Single Family Traditional 19107 Greenview Glen Drive Cypress, TX 77433 $442,352 3,073 sq. ft. $144
2018-05-10 Single Family Traditional 15306 Turning Limb Court Court Cypress, TX 77433 $284,000 2,898 sq. ft. 7,841 sq. ft. $98
2018-05-10 Single Family Contemporary/Modern 14734 Fir Knoll Way Cypress, TX 77429 $235,000 3,185 sq. ft. 4,792 sq. ft. $74
2018-05-10 Single Family Traditional 16819 Empty Ness Drive Cypress, TX 77429 $229,900 2,102 sq. ft. 6,098 sq. ft. $109
2018-05-10 Single Family Traditional 9518 Flora Rock Lane Cypress, TX 77433 $414,170 3,750 sq. ft. 10,019 sq. ft. $110
2018-05-10 Single Family Traditional 15103 Haverfield Court Cypress, TX 77429 $550,000 4,861 sq. ft. 9,148 sq. ft. $113
2018-05-10 Single Family Traditional 18714 Bridoon Drive Cypress, TX 77433 $135,990 1,316 sq. ft. 4,792 sq. ft. $103
2018-05-10 Single Family Traditional 17934 Olde Oaks Estate Court Cypress, TX 77433 $588,000 3,387 sq. ft. 6,098 sq. ft. $174
2018-05-10 Single Family Traditional 21010 Caramel Apple Trail Cypress, TX 77433 $569,900 4,340 sq. ft. 12,632 sq. ft. $131
2018-05-10 Single Family Georgian 12610 Campsite Trail Cypress, TX 77429 $325,000 2,400 sq. ft. 9,148 sq. ft. $135
2018-05-10 Single Family Traditional 20527 Blue Hyacinth Drive Cypress, TX 77433 $325,000 3,011 sq. ft. 6,098 sq. ft. $108
2018-05-10 Single Family Traditional 12211 Lakewood Glen Court Cypress, TX 77429 $324,900 3,596 sq. ft. 8,712 sq. ft. $90
2018-05-10 Single Family Traditional 15218 Flintridge Lake Lane Cypress, TX 77433 $297,222 2,427 sq. ft. $122
2018-05-10 Single Family Traditional 15818 Raleigh Oak Lane Cypress, TX 77433 $275,000 2,688 sq. ft. 12,197 sq. ft. $102
2018-05-10 Single Family Traditional 14806 Lark Sky Way Cypress, TX 77429 $268,057 2,135 sq. ft. $126
2018-05-10 Single Family Traditional 16022 Sandy Ring Court Cypress, TX 77429 $300,000 3,462 sq. ft. 7,841 sq. ft. $87
2018-05-10 Single Family Traditional 14607 Cypress Green Drive Cypress, TX 77429 $232,500 2,452 sq. ft. 6,534 sq. ft. $95
2018-05-09 Single Family Traditional 17222 Winding Oak Court Cypress, TX 77429 $868,000 3,648 sq. ft. 223,898 sq. ft. $238
2018-05-09 Single Family Mediterranean; Traditional 10211 Grape Creek Grove Lane Cypress, TX 77433 $1,175,000 4,698 sq. ft. 15,246 sq. ft. $250
2018-05-09 Single Family Traditional 18814 Cove Vista Lane Cypress, TX 77433 $744,000 6,200 sq. ft. 12,197 sq. ft. $120
2018-05-09 Single Family Traditional 13602 Briarstone Glen Court Cypress, TX 77429 $534,640 3,815 sq. ft. $140
2018-05-09 Single Family Traditional 26614 Mellenbrook Lane Cypress, TX 77433 $435,000 4,230 sq. ft. 10,019 sq. ft. $103
2018-05-09 Single Family Contemporary/Modern 19523 Bella Arbor Lane Cypress, TX 77433 $489,000 3,042 sq. ft. 9,583 sq. ft. $161
2018-05-09 Single Family Traditional 18907 Rushfield Glen Lane Cypress, TX 77429 $392,000 3,257 sq. ft. 7,841 sq. ft. $120
2018-05-09 Single Family Traditional 16502 Darby House Street Cypress, TX 77429 $365,000 3,936 sq. ft. 9,583 sq. ft. $93
2018-05-09 Single Family Traditional 16234 Haden Crest Court Cypress, TX 77429 $330,000 3,184 sq. ft. 8,276 sq. ft. $104
2018-05-09 Single Family Traditional 15511 Stallion Point Circle Cypress, TX 77429 $349,900 3,423 sq. ft. 10,454 sq. ft. $102
2018-05-09 Single Family Traditional 18011 Fossilwood Lane Cypress, TX 77429 $355,500 3,291 sq. ft. 7,405 sq. ft. $108
2018-05-09 Single Family Traditional 15442 Bay Tree Landing Cypress, TX 77429 $319,900 3,174 sq. ft. 8,276 sq. ft. $101
2018-05-09 Single Family Traditional 18602 Winterton Cliff Court Cypress, TX 77429 $385,000 2,798 sq. ft. 10,890 sq. ft. $138
2018-05-09 Single Family Traditional 8707 Windhaven Terrace Trail Cypress, TX 77433 $270,000 2,653 sq. ft. 7,841 sq. ft. $102
2018-05-09 Single Family Traditional 26838 Trinity Trail Cypress, TX 77433 $262,000 2,784 sq. ft. 6,534 sq. ft. $94
2018-05-09 Single Family Traditional 13703 Indigo Spires Court Cypress, TX 77429 $235,000 1,914 sq. ft. 5,663 sq. ft. $123
2018-05-09 Single Family Traditional 8243 Stratford Canyon Drive Cypress, TX 77433 $200,000 2,142 sq. ft. 6,970 sq. ft. $93
2018-05-09 Single Family Traditional 13834 Rosetta Drive Cypress, TX 77429 $160,000 1,808 sq. ft. 6,970 sq. ft. $88
2018-05-09 Single Family Traditional 7426 Pheasant Grove Drive Cypress, TX 77433 $169,900 2,140 sq. ft. 6,534 sq. ft. $79
2018-05-09 Single Family Traditional 13930 Montaigne Drive Cypress, TX 77429 $132,500 1,427 sq. ft. 6,970 sq. ft. $93
2018-05-09 Single Family Traditional 13707 Cahill Court Cypress, TX 77429 $479,000 4,396 sq. ft. 12,197 sq. ft. $109
2018-05-08 Single Family Traditional 15702 Medina Lake Lane Cypress, TX 77429 $665,000 5,310 sq. ft. 22,651 sq. ft. $125
2018-05-08 Single Family Traditional 19512 Moonlit Haven Circle Cypress, TX 77433 $425,000 3,691 sq. ft. 8,712 sq. ft. $115
2018-05-08 Single Family Traditional 15415 Stable Oak Drive Cypress, TX 77429 $430,000 4,378 sq. ft. 10,454 sq. ft. $98
2018-05-08 Single Family Traditional 17014 Seminole Ridge Drive Cypress, TX 77433 $245,000 1,547 sq. ft. 5,227 sq. ft. $158
2018-05-08 Single Family Traditional 17415 W Blooming Rose Court Cypress, TX 77429 $639,000 4,694 sq. ft. 30,928 sq. ft. $136
2018-05-08 Single Family Traditional 8922 Coral Honeysuckle Loop Cypress, TX 77433 $384,990 2,860 sq. ft. 5,663 sq. ft. $135
2018-05-08 Single Family Traditional 15219 Elm Square Street Cypress, TX 77429 $269,900 3,242 sq. ft. 6,970 sq. ft. $83
2018-05-08 Single Family Traditional 20014 Silver Mesia Circle Cypress, TX 77433 $383,900 2,949 sq. ft. 8,276 sq. ft. $130
2018-05-08 Single Family Traditional 20022 Silver Mesia Circle Cypress, TX 77433 $386,900 2,916 sq. ft. 11,326 sq. ft. $133
2018-05-08 Single Family Traditional 9226 Stella Landing Lane Cypress, TX 77433 $377,900 2,935 sq. ft. 8,276 sq. ft. $129
2018-05-08 Single Family Traditional 18014 Gable Oak Lane Cypress, TX 77433 $315,000 3,310 sq. ft. 8,712 sq. ft. $95
2018-05-08 Single Family Traditional 13914 Crow Ridge Court Cypress, TX 77429 $285,000 2,857 sq. ft. 6,098 sq. ft. $100
2018-05-08 Single Family Traditional 14711 Windy Hillside Trail Cypress, TX 77429 $324,975 3,000 sq. ft. 9,583 sq. ft. $108
2018-05-08 Single Family Traditional 14607 Birchwood Falls Trail Cypress, TX 77429 $268,176 2,009 sq. ft. 6,098 sq. ft. $133
2018-05-08 Single Family Traditional 14611 Plains River Drive Cypress, TX 77429 $245,000 2,641 sq. ft. 5,663 sq. ft. $93
2018-05-08 Single Family Traditional 13627 Clareton Lane Cypress, TX 77429 $235,000 1,940 sq. ft. 6,534 sq. ft. $121
2018-05-08 Single Family Other Style; Spanish 17006 Avion Village Cypress, TX 77433 $699,386 4,406 sq. ft. $159
2018-05-08 Single Family Traditional 16909 Caramel Apple Trail Cypress, TX 77433 $524,000 4,343 sq. ft. 13,068 sq. ft. $121
2018-05-08 Single Family Traditional 17311 Scenic Lake Court Cypress, TX 77429 $535,000 4,200 sq. ft. 36,155 sq. ft. $127
2018-05-08 Single Family Traditional 10311 Joshua Creek Court Cypress, TX 77433 $899,950 4,823 sq. ft. 16,117 sq. ft. $187
2018-05-08 Single Family Traditional 12911 Mustang River Drive Cypress, TX 77429 $639,750 4,604 sq. ft. 13,068 sq. ft. $139
2018-05-08 Single Family Traditional 16914 Himley Drive Cypress, TX 77433 $620,105 4,254 sq. ft. $146
2018-05-08 Single Family Traditional 21103 Cameron Ridge Drive Cypress, TX 77433 $645,000 4,549 sq. ft. 29,185 sq. ft. $142
2018-05-08 Single Family Traditional 18314 Dockside Landing Cypress, TX 77433 $732,815 3,419 sq. ft. $214
2018-05-08 Single Family Traditional 10602 Grace Hollow Drive Cypress, TX 77433 $649,500 4,632 sq. ft. 9,583 sq. ft. $140
2018-05-08 Single Family Traditional 12007 Cove Hill Lane Cypress, TX 77433 $650,000 4,588 sq. ft. 14,810 sq. ft. $142
2018-05-08 Single Family Traditional 21407 Violet Haze Trail Cypress, TX 77433 $624,900 4,387 sq. ft. 10,454 sq. ft. $142
2018-05-08 Single Family Traditional 21406 Refuge Creek Drive Cypress, TX 77433 $585,000 4,130 sq. ft. 22,216 sq. ft. $142
2018-05-08 Single Family Traditional 16803 Miller More Drive Cypress, TX 77433 $742,345 4,836 sq. ft. 13,068 sq. ft. $154
2018-05-08 Single Family Traditional 18903 Galloway Reach Dr Cypress, TX 77433 $640,365 4,119 sq. ft. 12,632 sq. ft. $155
2018-05-08 Single Family Mediterranean 13734 Vinery Lane Cypress, TX 77429 $530,000 4,921 sq. ft. 20,909 sq. ft. $108
2018-05-08 Single Family Mediterranean 17810 Honey Daisy Court Cypress, TX 77433 $554,000 3,818 sq. ft. 8,276 sq. ft. $145
2018-05-08 Single Family Traditional 19511 Meadow Lakes Drive Cypress, TX 77433 $499,000 3,997 sq. ft. 9,148 sq. ft. $125
2018-05-08 Single Family Contemporary/Modern 17919 Bandera Ridge Cypress, TX 77433 $719,023 4,622 sq. ft. 12,632 sq. ft. $156
2018-05-08 Single Family Traditional 14003 Winding Springs Drive Cypress, TX 77429 $769,900 4,711 sq. ft. 15,246 sq. ft. $163
2018-05-08 Single Family Traditional 11211 Ladybird Landing Drive Cypress, TX 77433 $549,711 3,585 sq. ft. 7,405 sq. ft. $153
2018-05-08 Single Family Traditional 16207 Frog Pond Drive Cypress, TX 77433 $649,950 4,541 sq. ft. $143
2018-05-08 Single Family Traditional 16519 Winding Ivy Lane Cypress, TX 77433 $729,100 3,911 sq. ft. $186
2018-05-08 Single Family Traditional 10419 Three Rivers Way Cypress, TX 77433 $599,000 4,888 sq. ft. 12,632 sq. ft. $123
2018-05-08 Single Family Traditional 10703 William Pass Lane Cypress, TX 77433 $575,900 4,098 sq. ft. 10,890 sq. ft. $141
2018-05-08 Single Family Traditional 16226 Folk Festival Place Cypress, TX 77433 $566,172 4,200 sq. ft. $135
2018-05-08 Single Family Traditional 19415 Maifest Drive Cypress, TX 77433 $547,997 3,766 sq. ft. $146
2018-05-08 Single Family Traditional 17106 Astin Mansion Lane Cypress, TX 77433 $553,166 4,087 sq. ft. $135
2018-05-08 Single Family Traditional 21015 Kelsey Creek Trail Cypress, TX 77433 $569,900 4,571 sq. ft. 15,246 sq. ft. $125
2018-05-08 Single Family Ranch; Traditional 21403 Fairhaven Creek Drive Cypress, TX 77433 $550,000 3,459 sq. ft. 27,443 sq. ft. $159
2018-05-08 Single Family Traditional 20903 Fairhaven Creek Drive Cypress, TX 77433 $710,000 5,563 sq. ft. 26,572 sq. ft. $128
2018-05-08 Single Family Contemporary/Modern; Traditional 17922 Lake Nocona Court Cypress, TX 77433 $599,750 4,706 sq. ft. 13,068 sq. ft. $127
2018-05-08 Single Family Traditional 18906 Glidden Stream Lane Cypress, TX 77433 $561,373 4,117 sq. ft. $136
2018-05-08 Single Family Mediterranean 17511 Bremonds Bend Court Cypress, TX 77433 $1,295,000 5,966 sq. ft. 21,344 sq. ft. $217
2018-05-08 Single Family Traditional 11414 Carson Field Lane Cypress, TX 77433 $699,000 6,118 sq. ft. 13,504 sq. ft. $114
2018-05-08 Single Family Traditional 19327 Maifest Drive Cypress, TX 77433 $547,802 4,000 sq. ft. $137
2018-05-08 Single Family Traditional 12510 Shadow Lake Lane Cypress, TX 77429 $795,000 3,106 sq. ft. 174,240 sq. ft. $256
2018-05-08 Single Family Mediterranean 12318 Cross Canyon Lane Cypress, TX 77433 $1,295,000 5,700 sq. ft. 46,174 sq. ft. $227
2018-05-08 Single Family Traditional 10303 Joshua Creek Court Cypress, TX 77433 $998,950 5,188 sq. ft. 16,988 sq. ft. $193
2018-05-08 Single Family Traditional 12022 Silverwood Bend Lane Cypress, TX 77433 $625,000 5,000 sq. ft. 16,553 sq. ft. $125
2018-05-08 Single Family Traditional 15822 Medina Lake Lane Cypress, TX 77429 $550,000 4,336 sq. ft. 12,197 sq. ft. $127
2018-05-08 Single Family Contemporary/Modern 16906 Thomas Ridge Lane Cypress, TX 77433 $599,000 3,579 sq. ft. 10,890 sq. ft. $167
2018-05-08 Single Family Traditional 18511 Wade Creek Lane Cypress, TX 77433 $565,000 4,489 sq. ft. 12,632 sq. ft. $126
2018-05-08 Single Family Mediterranean; Traditional 13811 Winding Springs Drive Cypress, TX 77429 $725,000 4,646 sq. ft. 15,246 sq. ft. $156
2018-05-08 Single Family Traditional 18007 Blue Ridge Shores Drive Cypress, TX 77433 $729,950 4,672 sq. ft. 13,504 sq. ft. $156
2018-05-07 Single Family Traditional 13714 Fir Glen Lane Cypress, TX 77429 $465,000 4,443 sq. ft. 13,939 sq. ft. $105
2018-05-07 Single Family Traditional 17703 Refuge Lake Drive Cypress, TX 77433 $609,990 3,896 sq. ft. 23,522 sq. ft. $157
2018-05-07 Single Family Traditional 15526 Ponderosa Bend Drive Cypress, TX 77429 $386,104 3,277 sq. ft. $118
2018-05-07 Single Family Traditional 10943 Sunnydale Rige Lane Cypress, TX 77433 $469,990 3,536 sq. ft. 16,988 sq. ft. $133
2018-05-07 Single Family Traditional 20514 Moonrise River Lane Cypress, TX 77433 $229,500 3,219 sq. ft. 5,663 sq. ft. $71
2018-05-07 Single Family Traditional 19018 Centerra Springs Drive Cypress, TX 77429 $539,000 3,294 sq. ft. 12,632 sq. ft. $164
2018-05-07 Single Family Traditional 18911 Dove Creek Springs Trail Cypress, TX 77433 $575,000 5,200 sq. ft. 19,602 sq. ft. $111
2018-05-07 Single Family Traditional 17310 Martinet Court Cypress, TX 77433 $590,248 4,541 sq. ft. $130
2018-05-07 Single Family Traditional 18601 Cypress Rosehill Road Cypress, TX 77429 $980,000 4,094 sq. ft. 304,920 sq. ft. $239
2018-05-07 Single Family English; Other Style 17619 Cypress Fields Avenue Cypress, TX 77429 $649,900 4,654 sq. ft. 130,680 sq. ft. $140
2018-05-07 Single Family Other Style 16835 Seminole Ridge Cypress, TX 77433 $384,153 2,714 sq. ft. 6,970 sq. ft. $142
2018-05-07 Single Family Traditional 26207 Pleasant Knoll Lane Cypress, TX 77433 $430,000 4,066 sq. ft. 11,761 sq. ft. $106
2018-05-07 Single Family Traditional 18903 Cheetham Drive Cypress, TX 77433 $478,615 3,093 sq. ft. $155
2018-05-07 Single Family Traditional 15310 Thompson Ridge Drive Cypress, TX 77429 $445,000 3,610 sq. ft. 14,375 sq. ft. $123
2018-05-07 Single Family Other Style 9402 Open Sands Court Cypress, TX 77433 $365,000 4,473 sq. ft. 6,970 sq. ft. $82
2018-05-07 Single Family Other Style; Traditional 16719 Seminole Ridge Cypress, TX 77433 $340,000 2,173 sq. ft. 6,098 sq. ft. $156
2018-05-07 Single Family Traditional 26814 Glenfield Hollow Lane Cypress, TX 77433 $300,000 3,776 sq. ft. 9,583 sq. ft. $79
2018-05-07 Single Family Other Style; Traditional 18535 First Landing Drive Cypress, TX 77433 $323,224 1,722 sq. ft. 5,227 sq. ft. $188
2018-05-07 Single Family Contemporary/Modern 19810 Tacoma Bluff Drive Cypress, TX 77433 $299,990 2,820 sq. ft. 6,534 sq. ft. $106
2018-05-07 Single Family Traditional 10423 Angeline Springs Lane Cypress, TX 77433 $299,990 2,250 sq. ft. 6,534 sq. ft. $133
2018-05-07 Single Family Traditional 18126 Mallard Estates Court Cypress, TX 77429 $275,000 3,087 sq. ft. 9,583 sq. ft. $89
2018-05-07 Single Family Traditional 20314 Sable Acre Court Cypress, TX 77433 $225,000 2,395 sq. ft. 6,970 sq. ft. $94
2018-05-07 Single Family Traditional 10014 Durango Path Lane Cypress, TX 77433 $545,000 5,192 sq. ft. 14,375 sq. ft. $105
2018-05-07 Single Family Traditional 26118 Crosswood Trails Lane Cypress, TX 77433 $495,000 3,244 sq. ft. 30,928 sq. ft. $153
2018-05-07 Single Family Traditional 14710 Bekapark Court Cypress, TX 77433 $248,888 1,620 sq. ft. 5,227 sq. ft. $154
2018-05-07 Single Family Mediterranean 13915 Maple Cliff Lane Cypress, TX 77429 $537,500 4,242 sq. ft. 16,553 sq. ft. $127
2018-05-07 Single Family Traditional 15802 Blanco Trails Lane Cypress, TX 77429 $625,000 4,787 sq. ft. 14,375 sq. ft. $131
2018-05-07 Single Family Traditional 13914 Rustic Hills Lane Lane Cypress, TX 77429 $559,000 4,647 sq. ft. 12,197 sq. ft. $120
2018-05-07 Single Family Traditional 17910 Olde Oaks Estate Court Cypress, TX 77433 $525,000 3,312 sq. ft. 5,227 sq. ft. $159
2018-05-07 Single Family Traditional 19503 Comal River Drive Cypress, TX 77433 $569,000 4,768 sq. ft. 11,761 sq. ft. $119
2018-05-07 Single Family Mediterranean 12807 Palomino Lake Circle Cypress, TX 77429 $673,431 4,635 sq. ft. 13,068 sq. ft. $145
2018-05-07 Single Family Traditional 17935 Spoke Hollow Court Cypress, TX 77433 $679,500 3,814 sq. ft. 7,841 sq. ft. $178
2018-05-07 Single Family Traditional 19515 Asher Meadows Drive Cypress, TX 77433 $525,000 4,116 sq. ft. 10,890 sq. ft. $128
2018-05-07 Single Family Traditional 17923 Lake Nocona Court Cypress, TX 77433 $509,990 3,708 sq. ft. 9,583 sq. ft. $138
2018-05-07 Single Family Traditional 19702 Chara Court Cypress, TX 77433 $686,967 5,011 sq. ft. 10,890 sq. ft. $137
2018-05-07 Single Family Traditional 18811 Rock Pigeon Trail Cypress, TX 77433 $677,331 4,393 sq. ft. $154
2018-05-07 Single Family Traditional 19503 Living Water Lane Cypress, TX 77433 $653,421 4,389 sq. ft. 9,583 sq. ft. $149
2018-05-07 Single Family Traditional 19122 West Josey Overlook Drive Cypress, TX 77433 $849,900 4,967 sq. ft. 16,988 sq. ft. $171
2018-05-07 Single Family Traditional 18807 Cove Bend Lane Cypress, TX 77433 $655,000 4,870 sq. ft. 13,504 sq. ft. $134
2018-05-07 Single Family Traditional 12802 Shire Mills Court Cypress, TX 77429 $647,318 4,499 sq. ft. 9,148 sq. ft. $144
2018-05-07 Single Family Traditional 13518 Cypress Pond Drive Cypress, TX 77429 $539,000 4,776 sq. ft. 11,326 sq. ft. $113
2018-05-07 Single Family Mediterranean; Ranch; Traditional 16221 Stone Oak Estates Court Cypress, TX 77429 $3,500,000 10,904 sq. ft. 239,144 sq. ft. $321
2018-05-07 Single Family Traditional 18409 Cypress Church Road Cypress, TX 77433 $925,000 4,689 sq. ft. 155,509 sq. ft. $197
2018-05-07 Single Family Mediterranean 13803 Nueces Springs Lane Cypress, TX 77429 $799,000 5,740 sq. ft. 21,780 sq. ft. $139
2018-05-07 Single Family Traditional 14206 Bluebonnet Bend Cypress, TX 77429 $750,000 5,645 sq. ft. 28,750 sq. ft. $133
2018-05-07 Single Family Traditional 10323 Mayberry Heights Drive Cypress, TX 77433 $474,645 3,709 sq. ft. 7,405 sq. ft. $128
2018-05-07 Single Family Contemporary/Modern 26111 Crosswood Trails Lane Cypress, TX 77433 $599,998 5,402 sq. ft. 30,056 sq. ft. $111
2018-05-07 Single Family French; Traditional 17303 Bending Cypress Road Cypress, TX 77429 $755,000 3,671 sq. ft. 87,120 sq. ft. $206
2018-05-07 Single Family Mediterranean 15706 Frio Springs Lane Cypress, TX 77429 $575,000 4,613 sq. ft. 13,504 sq. ft. $125
2018-05-07 Single Family Traditional 18214 Dockside Landing Drive Cypress, TX 77433 $849,950 4,955 sq. ft. 13,068 sq. ft. $172
2018-05-07 Single Family Traditional 15003 Silver Willow Cir Cypress, TX 77429 $503,489 4,045 sq. ft. $124
2018-05-07 Single Family Traditional 21119 Begonia Creek Court Cypress, TX 77433 $549,900 4,003 sq. ft. 21,344 sq. ft. $137
2018-05-07 Single Family Traditional 13806 Campwood Lane Cypress, TX 77429 $649,000 4,871 sq. ft. 20,473 sq. ft. $133
2018-05-07 Single Family Traditional 19203 San Saba River Court Cypress, TX 77433 $629,000 4,818 sq. ft. 13,504 sq. ft. $131
2018-05-07 Single Family Mediterranean 20211 Mariposa Blue Lane Cypress, TX 77433 $565,000 5,201 sq. ft. 13,068 sq. ft. $109
2018-05-07 Single Family Mediterranean 10311 Olivia View Lane Cypress, TX 77433 $650,000 4,967 sq. ft. 13,939 sq. ft. $131
2018-05-07 Single Family Traditional 18802 Rock Pigeon Trail Cypress, TX 77433 $620,526 4,095 sq. ft. $152
2018-05-07 Single Family Traditional 17314 Martinet Court Cypress, TX 77433 $549,999 4,280 sq. ft. $128
2018-05-07 Single Family Traditional 19022 Centerra Springs Drive Cypress, TX 77429 $615,000 4,583 sq. ft. $134
2018-05-07 Single Family Contemporary/Modern; Mediterranean; Traditional 10202 Llano River Lane Cypress, TX 77433 $919,000 5,288 sq. ft. 15,246 sq. ft. $174
2018-05-07 Single Family Traditional 16522 Mount Hope Drive Cypress, TX 77433 $588,983 3,381 sq. ft. 12,632 sq. ft. $174
2018-05-07 Single Family Traditional 19603 Lone Tupelo Court Cypress, TX 77433 $542,989 4,095 sq. ft. $133
2018-05-07 Single Family Traditional 15311 Thompson Ridge Drive Cypress, TX 77429 $549,000 4,212 sq. ft. $130
2018-05-07 Single Family Mediterranean 14119 Boerne Country Drive Cypress, TX 77429 $625,000 4,581 sq. ft. 13,068 sq. ft. $136
2018-05-07 Single Family Traditional 15215 Bandera Falls Bend Cypress, TX 77429 $625,000 4,394 sq. ft. 14,810 sq. ft. $142
2018-05-07 Single Family Other Style 20431 Knights Branch Drive Cypress, TX 77433 $549,900 4,409 sq. ft. 9,148 sq. ft. $125
2018-05-07 Single Family Contemporary/Modern 19114 Bickham Drive Cypress, TX 77433 $645,433 4,547 sq. ft. 10,890 sq. ft. $142
2018-05-07 Single Family Ranch; Traditional 20714 Rankin Meadows Court Cypress, TX 77433 $600,000 4,249 sq. ft. 29,185 sq. ft. $141
2018-05-07 Single Family Traditional 12315 Cross Canyon Lane Cypress, TX 77433 $749,999 5,426 sq. ft. 23,087 sq. ft. $138
2018-05-07 Single Family Traditional 11906 Hallowed Stream Lane Cypress, TX 77433 $569,900 5,076 sq. ft. 12,197 sq. ft. $112
2018-05-07 Single Family Traditional 10802 William Pass Lane Cypress, TX 77433 $529,990 4,590 sq. ft. 10,454 sq. ft. $115
2018-05-07 Single Family Mediterranean; Split Level; Traditional 12522 Cross Canyon Lane Cypress, TX 77433 $574,500 4,465 sq. ft. 21,780 sq. ft. $129
2018-05-07 Single Family Traditional 17807 Lakeside Haven Drive Cypress, TX 77433 $685,000 5,553 sq. ft. 21,780 sq. ft. $123
2018-05-07 Single Family Traditional 9707 Pedernales River Drive Cypress, TX 77433 $570,990 4,832 sq. ft. 15,246 sq. ft. $118
2018-05-07 Single Family Traditional 18919 Steep Step Trail Cypress, TX 77433 $549,994 3,836 sq. ft. 10,454 sq. ft. $143
2018-05-07 Single Family Contemporary/Modern; Traditional 12422 Francel Cypress, TX 77429 $730,000 5,963 sq. ft. 15,682 sq. ft. $122
2018-05-07 Single Family Traditional 19014 East Josey Overlook Drive Cypress, TX 77433 $884,900 4,931 sq. ft. 16,988 sq. ft. $179
2018-05-07 Single Family Traditional 13819 Jarvis Road Cypress, TX 77429 $619,000 4,896 sq. ft. 48,787 sq. ft. $126
2018-05-07 Single Family Traditional 13726 Leon Springs Lane Cypress, TX 77429 $899,000 5,581 sq. ft. 26,572 sq. ft. $161
2018-05-07 Single Family Traditional 18725 Shaw Road Cypress, TX 77429 $1,450,000 4,479 sq. ft. 304,920 sq. ft. $324
2018-05-07 Single Family Mediterranean 13706 Leon Springs Lane Cypress, TX 77429 $720,000 5,571 sq. ft. 21,780 sq. ft. $129
2018-05-07 Single Family Ranch; Traditional 17802 Honey Daisy Court Cypress, TX 77433 $539,000 3,339 sq. ft. 10,890 sq. ft. $161
2018-05-07 Single Family Traditional 26407 Hollow Stone Lane Cypress, TX 77433 $949,900 5,107 sq. ft. 23,087 sq. ft. $186
2018-05-07 Single Family Traditional 13910 Maple Cliff Lane Cypress, TX 77429 $874,900 5,807 sq. ft. 19,166 sq. ft. $151
2018-05-07 Single Family Traditional 15703 Uvalde Springs Lane Cypress, TX 77429 $630,000 4,605 sq. ft. 20,909 sq. ft. $137
2018-05-07 Single Family Traditional 17923 Lake Leon Court Cypress, TX 77433 $539,900 4,590 sq. ft. 8,276 sq. ft. $118
2018-05-07 Single Family Traditional 10619 Sunrise Shores Lane Cypress, TX 77433 $789,900 5,888 sq. ft. 17,424 sq. ft. $134
2018-05-07 Single Family Traditional 18703 San Saba Creek Circle Cypress, TX 77433 $669,000 5,702 sq. ft. 13,939 sq. ft. $117
2018-05-07 Single Family Traditional 12955 Lake Parc Bend Drive Cypress, TX 77429 $578,000 3,769 sq. ft. 12,197 sq. ft. $153
2018-05-07 Single Family Traditional 17111 Covey Trail Cypress, TX 77433 $559,216 4,087 sq. ft. $137
2018-05-07 Single Family Traditional 17302 Martinet Court Cypress, TX 77433 $580,077 4,183 sq. ft. $139
2018-05-07 Single Family Ranch; Traditional 17010 Steinhagen Road Cypress, TX 77429 $530,000 3,140 sq. ft. 89,298 sq. ft. $169
2018-05-07 Single Family Traditional 21007 Fairhaven Creek Drive Cypress, TX 77433 $699,900 4,985 sq. ft. 22,216 sq. ft. $140
2018-05-07 Single Family Traditional 17810 Safe Haven Drive Cypress, TX 77433 $690,000 5,072 sq. ft. 22,216 sq. ft. $136
2018-05-07 Single Family Traditional 18114 Rainwater Creek Cypress, TX 77433 $549,945 3,270 sq. ft. 11,761 sq. ft. $168
2018-05-07 Single Family Traditional 18110 Rainwater Creek Cypress, TX 77433 $517,632 2,920 sq. ft. 9,583 sq. ft. $177
2018-05-07 Single Family Traditional 19234 San Solomon Springs Cypress, TX 77433 $755,445 4,224 sq. ft. 7,841 sq. ft. $179
2018-05-07 Single Family Traditional 19310 San Solomon Springs Court Cypress, TX 77433 $814,755 4,040 sq. ft. 10,019 sq. ft. $202
2018-05-07 Single Family Traditional 10822 Painted Crescent Court Cypress, TX 77433 $649,545 3,720 sq. ft. 9,148 sq. ft. $175
2018-05-07 Single Family Traditional 10922 Crossview Lake Cypress, TX 77433 $669,841 3,421 sq. ft. 17,860 sq. ft. $196
2018-05-07 Single Family Traditional 17323 Lake Rose Court Cypress, TX 77429 $550,000 3,987 sq. ft. 32,670 sq. ft. $138
2018-05-07 Single Family Traditional 21103 Lexxe Creek Court Cypress, TX 77433 $520,000 3,869 sq. ft. 16,553 sq. ft. $134
2018-05-07 Single Family Traditional 12948 Lake Parc Bend Drive Cypress, TX 77429 $564,900 4,992 sq. ft. 11,761 sq. ft. $113
2018-05-07 Single Family Traditional 13642 Palomino Lake Circle Cypress, TX 77429 $686,053 4,524 sq. ft. 12,197 sq. ft. $152
2018-05-07 Single Family Traditional 19214 West Josey Overlook Drive Cypress, TX 77433 $899,900 5,537 sq. ft. 19,166 sq. ft. $163
2018-05-07 Single Family Traditional 13722 Rivendell Crest Lane Cypress, TX 77429 $498,394 3,867 sq. ft. 0 sq. ft. $129
2018-05-07 Single Family Traditional 18607 Thomas Shore Drive Cypress, TX 77433 $614,599 5,204 sq. ft. 13,939 sq. ft. $118
2018-05-07 Single Family Ranch; Traditional 17627 Kitzman Road Cypress, TX 77429 $825,000 4,517 sq. ft. 217,800 sq. ft. $183
2018-05-07 Single Family Traditional 17519 Bremonds Bend Court Cypress, TX 77433 $799,500 5,343 sq. ft. 12,197 sq. ft. $150
2018-05-07 Single Family Traditional 18919 Cove Bend Lane Cypress, TX 77433 $535,000 5,508 sq. ft. 13,504 sq. ft. $97
2018-05-07 Single Family French 13603 Kluge Corner Lane Cypress, TX 77429 $839,000 5,439 sq. ft. 24,829 sq. ft. $154
2018-05-07 Single Family Traditional 17630 Fragrant Rose Court Cypress, TX 77429 $530,000 3,958 sq. ft. 27,007 sq. ft. $134
2018-05-07 Single Family Traditional 18007 Mueschke Road Cypress, TX 77433 $898,000 4,134 sq. ft. 256,133 sq. ft. $217
2018-05-07 Single Family Traditional 15811 Hurstfield Pointe Drive Cypress, TX 77429 $415,000 3,662 sq. ft. 8,276 sq. ft. $113
2018-05-07 Single Family Ranch 13114 Kathy Lane Cypress, TX 77429 $450,000 1,671 sq. ft. 67,082 sq. ft. $269
2018-05-07 Single Family Traditional 15406 Thompson Ridge Drive Cypress, TX 77429 $398,000 2,757 sq. ft. $144
2018-05-07 Single Family Traditional 17818 Olde Oaks Estate Court Cypress, TX 77433 $459,000 2,206 sq. ft. 5,227 sq. ft. $208
2018-05-07 Single Family Traditional 19810 Indigo Key Cypress, TX 77433 $433,900 3,262 sq. ft. 8,276 sq. ft. $133
2018-05-07 Single Family Traditional 19110 Greenview Glen Cypress, TX 77433 $417,633 2,916 sq. ft. 7,405 sq. ft. $143
2018-05-07 Single Family Traditional 17327 Morgans Lake Drive Cypress, TX 77433 $475,000 4,150 sq. ft. 9,583 sq. ft. $114
2018-05-07 Single Family Traditional 13127 Park Forest Trail Cypress, TX 77429 $459,000 4,190 sq. ft. 26,572 sq. ft. $110
2018-05-07 Single Family Traditional 10327 Mayberry Heights Drive Cypress, TX 77433 $399,040 2,792 sq. ft. 7,405 sq. ft. $143
2018-05-07 Single Family Traditional 17106 Texas Lancer Drive Cypress, TX 77433 $449,990 3,716 sq. ft. $121
2018-05-07 Single Family Traditional 26310 Millies Creek Lane Cypress, TX 77433 $450,000 3,700 sq. ft. 13,504 sq. ft. $122
2018-05-07 Single Family Traditional 17811 Paint Bluff Cypress, TX 77433 $498,000 3,509 sq. ft. 10,454 sq. ft. $142
2018-05-07 Single Family Traditional 17814 Paintbrush Pass Court Cypress, TX 77433 $493,487 2,905 sq. ft. 4,792 sq. ft. $170
2018-05-07 Single Family Traditional 15027 Black Pine Circle Cypress, TX 77429 $439,000 3,327 sq. ft. 12,632 sq. ft. $132
2018-05-07 Single Family Traditional 15810 Stable Creek Circle Cypress, TX 77429 $490,000 4,351 sq. ft. 13,068 sq. ft. $113
2018-05-07 Single Family Traditional 11830 Trinity Bluff Ln Cypress, TX 77433 $330,000 2,529 sq. ft. 6,534 sq. ft. $130
2018-05-07 Single Family Traditional 8418 Sublime Point Drive Cypress, TX 77433 $349,000 3,678 sq. ft. 10,019 sq. ft. $95
2018-05-07 Single Family Traditional 12102 Cove Ridge Lane Cypress, TX 77433 $310,000 2,859 sq. ft. 6,970 sq. ft. $108
2018-05-07 Single Family Traditional 16319 Bontura Street Cypress, TX 77429 $349,000 3,169 sq. ft. 7,841 sq. ft. $110
2018-05-07 Single Family Traditional 8943 Texas Honeysuckle Trail Cypress, TX 77433 $339,500 2,917 sq. ft. 9,583 sq. ft. $116
2018-05-07 Single Family Traditional 10618 Twilight Creek Lane Cypress, TX 77433 $310,000 3,201 sq. ft. 7,405 sq. ft. $97
2018-05-07 Single Family Traditional 26722 Temple Park Lane Cypress, TX 77433 $335,000 3,505 sq. ft. 7,841 sq. ft. $96
2018-05-07 Single Family Traditional 12923 King Circle Cypress, TX 77429 $299,999 3,908 sq. ft. 18,295 sq. ft. $77
2018-05-07 Single Family Traditional 15915 Crooked Lake Way Cypress, TX 77433 $359,900 3,433 sq. ft. 10,019 sq. ft. $105
2018-05-07 Single Family Traditional 8811 Chapada Highlands Drive Cypress, TX 77433 $294,995 2,935 sq. ft. 0 sq. ft. $101
2018-05-07 Single Family Traditional 19302 Cottonwood Green Lane Cypress, TX 77433 $289,999 2,648 sq. ft. 5,227 sq. ft. $110
2018-05-07 Single Family Ranch 15330 Freestone Peach Lane Cypress, TX 77433 $255,000 2,422 sq. ft. 9,148 sq. ft. $105
2018-05-07 Single Family Traditional 12302 Meadow Breeze Drive Cypress, TX 77433 $265,000 2,229 sq. ft. 7,405 sq. ft. $119
2018-05-07 Single Family Traditional 7614 Shavano Lane Cypress, TX 77433 $279,900 3,617 sq. ft. 6,970 sq. ft. $77
2018-05-07 Single Family Contemporary/Modern 13014 Bristol Berry Drive Cypress, TX 77429 $265,000 2,549 sq. ft. 7,841 sq. ft. $104
2018-05-07 Single Family Traditional 12630 Rifleman Trail Cypress, TX 77429 $264,900 2,368 sq. ft. 9,583 sq. ft. $112
2018-05-07 Single Family Traditional 14323 Heath Falls Lane Cypress, TX 77429 $264,500 3,040 sq. ft. 5,663 sq. ft. $87
2018-05-07 Single Family Traditional 18902 Cove Mill Lane Cypress, TX 77433 $240,000 1,838 sq. ft. 8,276 sq. ft. $131
2018-05-07 Single Family Traditional 12726 Shady Knoll Lane Cypress, TX 77429 $225,000 3,711 sq. ft. 10,019 sq. ft. $61
2018-05-07 Single Family Traditional 15511 Hickory Dale Street Cypress, TX 77429 $219,900 2,760 sq. ft. 4,792 sq. ft. $80
2018-05-07 Single Family Traditional 17906 Timber Crossing Lane Cypress, TX 77433 $249,800 2,921 sq. ft. 10,019 sq. ft. $86
2018-05-07 Single Family Traditional 17907 Alora Springs Trace Cypress, TX 77433 $249,700 1,762 sq. ft. 6,534 sq. ft. $142
2018-05-07 Single Family Traditional 14919 Breezy Forest Lane Cypress, TX 77433 $225,000 2,267 sq. ft. 5,227 sq. ft. $99
2018-05-07 Single Family Traditional 16039 Cypress Farms Drive Cypress, TX 77429 $249,900 2,211 sq. ft. 6,534 sq. ft. $113
2018-05-07 Single Family Contemporary/Modern 18123 Williams Bend Drive Cypress, TX 77433 $234,000 1,936 sq. ft. 6,970 sq. ft. $121
2018-05-07 Single Family Colonial 15414 Evergreen Knoll Lane Cypress, TX 77433 $239,000 2,559 sq. ft. 7,841 sq. ft. $93
2018-05-07 Single Family Traditional 17706 Belwood Park Lane Cypress, TX 77433 $235,000 2,080 sq. ft. 7,405 sq. ft. $113
2018-05-07 Single Family French 12703 New Kentucky Road Cypress, TX 77429 $225,000 2,518 sq. ft. 8,276 sq. ft. $89
2018-05-07 Single Family Traditional 20719 Sweetstone Grove Lane Cypress, TX 77433 $224,900 2,010 sq. ft. 4,792 sq. ft. $112
2018-05-07 Single Family Traditional 8911 English Manor Drive Cypress, TX 77433 $249,990 2,366 sq. ft. $106
2018-05-07 Single Family Contemporary/Modern 7634 Shavano Lane Cypress, TX 77433 $220,000 3,544 sq. ft. 6,534 sq. ft. $62
2018-05-07 Single Family Ranch 14715 Enchanted Valley Drive Cypress, TX 77429 $179,900 2,054 sq. ft. 9,583 sq. ft. $88
2018-05-07 Single Family Traditional 19034 Rustic Gate Drive Cypress, TX 77433 $180,000 2,280 sq. ft. 4,792 sq. ft. $79
2018-05-07 Single Family Traditional 11219 Sunshine Park Drive Cypress, TX 77429 $179,900 2,236 sq. ft. 7,841 sq. ft. $80
2018-05-07 Single Family Traditional 18611 Shavano Court Cypress, TX 77433 $199,000 2,196 sq. ft. 9,148 sq. ft. $91
2018-05-07 Single Family Traditional 11314 Sunshine Park Drive Cypress, TX 77429 $199,900 2,145 sq. ft. 7,841 sq. ft. $93
2018-05-07 Single Family Traditional 12402 Shadow Lake Lane Cypress, TX 77429 $645,000 3,090 sq. ft. 205,603 sq. ft. $209
2018-05-07 Single Family Traditional 17927 Spoke Hollow Court Cypress, TX 77433 $699,000 3,789 sq. ft. 5,663 sq. ft. $184
2018-05-07 Single Family Traditional 10818 Avery Arbor Cypress, TX 77433 $522,900 3,535 sq. ft. $148
2018-05-07 Single Family Georgian 26307 Morning Cypress Lane Cypress, TX 77433 $647,000 6,162 sq. ft. 14,375 sq. ft. $105
2018-05-07 Single Family Traditional 19403 Water Bridge Drive Cypress, TX 77433 $499,000 4,192 sq. ft. 12,197 sq. ft. $119
2018-05-07 Single Family Traditional 15402 Mustang Bend Circle Cypress, TX 77429 $514,900 4,565 sq. ft. 15,246 sq. ft. $113
2018-05-07 Single Family Traditional 19440 Cypress Church Road Cypress, TX 77433 $650,000 1,974 sq. ft. 217,800 sq. ft. $329
2018-05-07 Single Family Contemporary/Modern; Traditional 17307 Prescott Manor Cypress, TX 77433 $664,900 5,541 sq. ft. 29,185 sq. ft. $120
2018-05-07 Single Family Contemporary/Modern 51 Wincrest Falls Drive Cypress, TX 77429 $1,100,000 4,506 sq. ft. 43,124 sq. ft. $244
2018-05-07 Single Family Contemporary/Modern 10407 Sheldon Springs Drive Cypress, TX 77433 $525,500 4,118 sq. ft. 10,454 sq. ft. $128
2018-05-07 Single Family Traditional 16805 Fritsche Cemetery Road Cypress, TX 77429 $2,980,000 9,136 sq. ft. 522,720 sq. ft. $326
2018-05-07 Single Family Traditional 19319 Maifest Drive Cypress, TX 77433 $469,000 3,766 sq. ft. $125
2018-05-07 Single Family Other Style; Traditional 11719 Oakshield Lane Cypress, TX 77433 $354,900 3,764 sq. ft. 10,019 sq. ft. $94
2018-05-07 Single Family Traditional 14218 Hancock Elm Street Cypress, TX 77429 $290,000 3,253 sq. ft. 7,841 sq. ft. $89
2018-05-07 Single Family Traditional 15115 Calvano Drive Cypress, TX 77429 $264,900 2,445 sq. ft. 6,534 sq. ft. $108
2018-05-07 Single Family Traditional 15902 Ellendale Court Cypress, TX 77429 $274,990 2,595 sq. ft. 10,019 sq. ft. $106
2018-05-07 Single Family Traditional 18907 Grey Springs Court Cypress, TX 77429 $285,000 2,850 sq. ft. 9,583 sq. ft. $100
2018-05-07 Single Family Traditional 7875 Galleon Field Lane Cypress, TX 77433 $205,000 2,722 sq. ft. 4,792 sq. ft. $75
2018-05-07 Single Family Traditional 13307 Blackbird Drive Cypress, TX 77429 $219,900 2,197 sq. ft. 9,148 sq. ft. $100
2018-05-07 Single Family Traditional 14831 Cascade Bend Lane Cypress, TX 77429 $178,000 2,084 sq. ft. 8,276 sq. ft. $85
2018-05-06 Single Family Traditional 15311 Mustang Valley Circle Cypress, TX 77429 $399,000 4,200 sq. ft. 10,890 sq. ft. $95
2018-05-06 Single Family Traditional 7102 Greenwood Point Drive Cypress, TX 77433 $165,900 1,346 sq. ft. 5,227 sq. ft. $123
2018-05-06 Single Family Traditional 9506 Briscoe Bend Lane Cypress, TX 77433 $310,000 2,454 sq. ft. 6,970 sq. ft. $126
2018-05-05 Single Family Traditional 12506 Bent Pine Drive Cypress, TX 77429 $214,900 2,236 sq. ft. 7,405 sq. ft. $96
2018-05-05 Single Family Traditional 9107 Belton Bend Cypress, TX 77433 $350,000 2,874 sq. ft. 10,019 sq. ft. $122
2018-05-05 Single Family Traditional 16915 Green Star Lane Cypress, TX 77429 $199,900 1,864 sq. ft. 7,405 sq. ft. $107
2018-05-05 Single Family Traditional 18407 Florence Knoll Drive Cypress, TX 77429 $400,585 2,285 sq. ft. $175
2018-05-05 Single Family Traditional 16207 Lavender Creek Ct Cypress, TX 77433 $220,980 1,977 sq. ft. 6,970 sq. ft. $112
2018-05-05 Single Family Traditional 15603 Clear Pointe Drive Cypress, TX 77429 $249,000 2,519 sq. ft. 7,841 sq. ft. $99
2018-05-05 Single Family Traditional 7116 Village Lake Drive Cypress, TX 77433 $134,900 1,305 sq. ft. 4,356 sq. ft. $103
2018-05-05 Single Family Traditional 15518 Chaco Canyon Drive Cypress, TX 77429 $215,000 1,743 sq. ft. 5,663 sq. ft. $123
2018-05-05 Single Family Traditional 18030 Riata Crossing Drive Cypress, TX 77433 $232,600 2,023 sq. ft. 6,098 sq. ft. $115
2018-05-05 Single Family Traditional 12322 Brook Cove Drive Cypress, TX 77433 $440,000 4,162 sq. ft. 10,890 sq. ft. $106
2018-05-05 Single Family Traditional 16911 Seminole Ridge Drive Cypress, TX 77433 $275,000 2,345 sq. ft. 4,356 sq. ft. $117
2018-05-04 Single Family Traditional 15415 Montreal Drive Cypress, TX 77429 $343,000 2,947 sq. ft. 8,276 sq. ft. $116
2018-05-04 Single Family Traditional 16302 Stable Manor Lane Cypress, TX 77429 $285,000 3,366 sq. ft. 13,068 sq. ft. $85
2018-05-04 Single Family Contemporary/Modern; Traditional 21614 Pine Arbor Way Cypress, TX 77433 $249,900 2,488 sq. ft. 6,534 sq. ft. $100
2018-05-04 Single Family Traditional 15143 Windsdowne Lane Cypress, TX 77429 $336,500 3,365 sq. ft. 9,583 sq. ft. $100
2018-05-04 Single Family Traditional 13110 Timberlake Drive Cypress, TX 77429 $275,000 2,106 sq. ft. 10,019 sq. ft. $131